Time;durP1;ratioP1;P1;durP2;ratioP2;P2;SDS_P1;SDS_P2;PMS_P1;PMS_P2;Temp;Humidity;BMP_temperature;BMP_pressure;BME280_temperature;BME280_humidity;BME280_pressure;Samples;Min_cycle;Max_cycle;Signal;HPM_P1;HPM_P2
2022/12/16 00:01:24;;;;;;;13.18;3.85;;;1.50;99.90;;;;;;5075352;28;20036;-87
2022/12/16 00:04:12;;;;;;;11.35;4.03;;;1.50;99.90;;;;;;5097087;28;20060;-81
2022/12/16 00:06:58;;;;;;;9.60;3.75;;;1.50;99.90;;;;;;5100871;28;20807;-82
2022/12/16 00:09:44;;;;;;;10.55;3.78;;;1.50;99.90;;;;;;5093479;28;20054;-80
2022/12/16 00:12:30;;;;;;;8.65;3.75;;;1.50;99.90;;;;;;5093554;28;20396;-84
2022/12/16 00:15:16;;;;;;;13.32;4.47;;;1.50;99.90;;;;;;5077075;28;20052;-77
2022/12/16 00:18:03;;;;;;;11.55;4.30;;;1.50;99.90;;;;;;5074944;28;20616;-77
2022/12/16 00:20:52;;;;;;;12.27;4.70;;;1.50;99.90;;;;;;5074898;28;20051;-76
2022/12/16 00:23:40;;;;;;;12.63;5.30;;;1.60;99.90;;;;;;5074672;28;20047;-77
2022/12/16 00:26:28;;;;;;;13.15;5.20;;;1.60;99.90;;;;;;5075798;28;20044;-86
2022/12/16 00:29:14;;;;;;;12.35;4.85;;;1.60;99.90;;;;;;5098411;28;20087;-79
2022/12/16 00:32:01;;;;;;;13.52;4.90;;;1.60;99.90;;;;;;5074813;28;20131;-77
2022/12/16 00:34:47;;;;;;;15.50;5.25;;;1.60;99.90;;;;;;5092296;28;20412;-83
2022/12/16 00:37:33;;;;;;;16.02;5.28;;;1.60;99.90;;;;;;5075670;28;20480;-81
2022/12/16 00:40:20;;;;;;;12.05;5.00;;;1.60;99.90;;;;;;5080634;28;20071;-85
2022/12/16 00:43:06;;;;;;;13.52;4.22;;;1.50;99.90;;;;;;5097222;28;20048;-79
2022/12/16 00:45:52;;;;;;;13.50;5.07;;;1.50;99.90;;;;;;5075606;28;20048;-85
2022/12/16 00:48:38;;;;;;;16.17;5.15;;;1.40;99.90;;;;;;5097642;28;20048;-87
2022/12/16 00:51:25;;;;;;;13.05;4.80;;;1.40;99.90;;;;;;5092149;28;20048;-87
2022/12/16 00:54:11;;;;;;;12.23;4.78;;;1.30;99.90;;;;;;5093450;28;20116;-88
2022/12/16 00:56:57;;;;;;;13.60;4.80;;;1.30;99.90;;;;;;5094661;28;20137;-84
2022/12/16 00:59:43;;;;;;;15.25;5.47;;;1.30;99.90;;;;;;5061517;28;20058;-83
2022/12/16 01:02:30;;;;;;;14.60;5.15;;;1.30;99.90;;;;;;5092261;28;20060;-85
2022/12/16 01:05:25;;;;;;;16.00;6.57;;;1.20;99.90;;;;;;5098130;28;20508;-81
2022/12/16 01:08:11;;;;;;;12.95;4.30;;;1.30;99.90;;;;;;5092403;28;20566;-90
2022/12/16 01:10:57;;;;;;;11.55;4.32;;;1.30;99.90;;;;;;5080040;28;20105;-82
2022/12/16 01:13:45;;;;;;;11.98;4.43;;;1.30;99.90;;;;;;5092670;28;20105;-81
2022/12/16 01:16:31;;;;;;;10.95;3.80;;;1.40;99.90;;;;;;5073545;28;20063;-84
2022/12/16 01:19:17;;;;;;;11.65;4.03;;;1.40;99.90;;;;;;5092700;28;20048;-80
2022/12/16 01:22:03;;;;;;;15.30;4.32;;;1.50;99.90;;;;;;5079560;28;20052;-78
2022/12/16 01:24:49;;;;;;;8.07;3.58;;;1.50;99.90;;;;;;5094511;28;20515;-76
2022/12/16 01:27:36;;;;;;;9.90;4.32;;;1.50;99.90;;;;;;5091815;28;20052;-77
2022/12/16 01:30:23;;;;;;;11.98;4.03;;;1.60;99.90;;;;;;5091271;28;20052;-78
2022/12/16 01:33:10;;;;;;;9.45;3.80;;;1.60;99.90;;;;;;5091357;28;20047;-76
2022/12/16 01:36:04;;;;;;;13.00;3.90;;;1.60;99.90;;;;;;5073515;28;20040;-76
2022/12/16 01:38:50;;;;;;;10.45;3.70;;;1.70;99.90;;;;;;5092458;28;20479;-89
2022/12/16 01:41:37;;;;;;;12.40;4.05;;;1.70;99.90;;;;;;5083777;28;20040;-84
2022/12/16 01:44:25;;;;;;;16.92;6.30;;;1.70;99.90;;;;;;5094538;28;20105;-76
2022/12/16 01:47:32;;;;;;;11.35;4.18;;;1.70;99.90;;;;;;5090683;28;20048;-77
2022/12/16 01:50:19;;;;;;;12.38;4.03;;;1.70;99.90;;;;;;5091862;28;20059;-76
2022/12/16 01:53:05;;;;;;;12.77;4.72;;;1.70;99.90;;;;;;5082546;28;20456;-76
2022/12/16 01:55:51;;;;;;;13.52;4.07;;;1.80;99.90;;;;;;5073172;28;20135;-87
2022/12/16 01:58:40;;;;;;;12.82;3.80;;;1.80;99.90;;;;;;5076873;28;20044;-77
2022/12/16 02:01:26;;;;;;;12.07;4.03;;;1.80;99.90;;;;;;5075126;28;20381;-76
2022/12/16 02:04:13;;;;;;;12.52;4.07;;;1.80;99.90;;;;;;5072041;28;20098;-76
2022/12/16 02:07:00;;;;;;;11.05;4.75;;;1.80;99.90;;;;;;5072572;28;20393;-78
2022/12/16 02:09:46;;;;;;;13.48;4.65;;;1.90;99.90;;;;;;5092567;28;20056;-79
2022/12/16 02:13:03;;;;;;;14.20;4.22;;;1.90;99.90;;;;;;5097869;28;20056;-79
2022/12/16 02:15:55;;;;;;;9.15;3.42;;;1.90;99.90;;;;;;5072518;28;20051;-77
2022/12/16 02:19:15;;;;;;;12.85;3.47;;;2.00;99.90;;;;;;5072388;28;20052;-77
2022/12/16 02:22:27;;;;;;;12.70;3.83;;;2.00;99.90;;;;;;5075710;28;20102;-76
2022/12/16 02:25:25;;;;;;;10.48;3.83;;;2.00;99.90;;;;;;5073530;28;20446;-80
2022/12/16 02:28:24;;;;;;;12.13;5.28;;;2.00;99.90;;;;;;5083596;28;20055;-78
2022/12/16 02:31:21;;;;;;;11.95;4.85;;;2.00;99.90;;;;;;5092477;28;20104;-76
2022/12/16 02:34:24;;;;;;;10.45;3.42;;;1.90;99.90;;;;;;5090666;28;20555;-84
2022/12/16 02:37:29;;;;;;;7.60;3.60;;;2.00;99.90;;;;;;5090741;28;20047;-77
2022/12/16 02:40:26;;;;;;;9.38;3.85;;;2.00;99.90;;;;;;5074955;28;20048;-80
2022/12/16 02:43:47;;;;;;;8.30;3.17;;;2.10;99.90;;;;;;5082817;28;20112;-77
2022/12/16 02:46:41;;;;;;;8.55;3.35;;;2.00;99.90;;;;;;5073155;28;20571;-76
2022/12/16 02:49:27;;;;;;;11.52;3.55;;;2.00;99.90;;;;;;5071608;28;20507;-78
2022/12/16 02:52:15;;;;;;;7.95;3.22;;;2.10;99.90;;;;;;5074412;28;20119;-80
2022/12/16 02:55:05;;;;;;;6.00;2.90;;;2.00;99.90;;;;;;5072828;28;20059;-79
2022/12/16 02:58:03;;;;;;;7.10;3.45;;;2.10;99.90;;;;;;5082079;28;20105;-78
2022/12/16 03:01:12;;;;;;;7.00;3.22;;;2.00;99.90;;;;;;5099248;28;20054;-77
2022/12/16 03:04:14;;;;;;;11.07;2.95;;;2.00;99.90;;;;;;5076197;28;20091;-77
2022/12/16 03:07:03;;;;;;;10.98;3.10;;;2.10;99.90;;;;;;5075878;28;20048;-77
2022/12/16 03:09:51;;;;;;;6.13;2.85;;;2.10;99.90;;;;;;5098127;28;20048;-77
2022/12/16 03:12:40;;;;;;;18.05;3.72;;;2.10;99.90;;;;;;5078772;28;20074;-87
2022/12/16 03:15:31;;;;;;;9.77;4.00;;;2.00;99.90;;;;;;5080747;28;20568;-79
2022/12/16 03:18:18;;;;;;;9.30;3.72;;;2.00;99.90;;;;;;5081816;28;20048;-85
2022/12/16 03:21:07;;;;;;;9.73;4.32;;;2.00;99.90;;;;;;5096905;28;20050;-85
2022/12/16 03:24:09;;;;;;;9.90;3.47;;;2.00;99.90;;;;;;5082902;28;20093;-78
2022/12/16 03:27:10;;;;;;;10.20;3.60;;;2.00;99.90;;;;;;5070997;28;20086;-86
2022/12/16 03:30:02;;;;;;;13.27;3.67;;;2.00;99.90;;;;;;5079773;28;20048;-78
2022/12/16 03:33:09;;;;;;;9.15;3.33;;;2.00;99.90;;;;;;5098785;28;20055;-81
2022/12/16 03:36:14;;;;;;;12.45;3.63;;;2.00;99.90;;;;;;5100335;28;20055;-82
2022/12/16 03:39:03;;;;;;;9.98;4.45;;;2.00;99.90;;;;;;5085991;28;20036;-76
2022/12/16 03:41:50;;;;;;;13.50;4.10;;;2.00;99.90;;;;;;5100970;28;20149;-77
2022/12/16 03:44:37;;;;;;;14.10;5.22;;;2.00;99.90;;;;;;5095730;28;20059;-77
2022/12/16 03:47:28;;;;;;;19.42;5.32;;;2.10;99.90;;;;;;5095846;28;20055;-77
2022/12/16 03:50:15;;;;;;;13.18;3.85;;;2.10;99.90;;;;;;5063022;28;20109;-81
2022/12/16 03:53:01;;;;;;;11.18;3.95;;;2.10;99.90;;;;;;5097500;28;20050;-78
2022/12/16 03:55:47;;;;;;;9.45;3.17;;;2.10;99.90;;;;;;5088518;28;20500;-77
2022/12/16 03:58:39;;;;;;;11.05;4.03;;;2.20;99.90;;;;;;5093620;28;20048;-77
2022/12/16 04:01:25;;;;;;;12.98;3.80;;;2.20;99.90;;;;;;5093334;28;20720;-77
2022/12/16 04:04:11;;;;;;;11.95;4.68;;;2.20;99.90;;;;;;5093473;28;20094;-79
2022/12/16 04:10:03;;;;;;;10.18;3.45;;;2.30;99.90;;;;;;5078886;28;20118;-85
2022/12/16 04:25:43;;;;;;;11.18;3.80;;;2.30;99.90;;;;;;4996997;28;20157;-76
2022/12/16 04:28:29;;;;;;;9.52;3.72;;;2.20;99.90;;;;;;5071587;28;20493;-76
2022/12/16 04:31:16;;;;;;;11.95;3.97;;;2.30;99.90;;;;;;5079311;28;20040;-76
